Canefield Airport

Partly cloudy with slight haze
31oC (88oF)

Partly cloudy with slight haze


Winds: South south easterly @ 02kts / 04km/h

Humidity: 68%

Barometric Pressure: 1016 mb

Accumulated Rainfall for July: 74.4 mm

Updated: 9:00 local time (13:00 UTC)

Douglas-Charles Airport

Cloudy with slight haze
29oC (84oF)

Cloudy with slight haze


Winds: East south easterly @ 11kts / 20km/h

Humidity: 80%

Barometric Pressure: 1018 mb

Accumulated Rainfall for July: 103.5 mm

Updated: 9:00 local time (13:00 UTC)

Satellite Imagery

Satellite Imagery
Click image for larger view. (Source: National Hurricane Center).

Aviation Routine Report (METAR)

Douglas-Charles: METAR TDPD 191300Z 11011KT 9999 BKN016 29/25 Q1018=
Canefield: METAR TDCF 191300Z 16002KT 9999 SCT019 31/24 Q1016=